Terminal Aerodrome Forecast
Issued by NWS Sioux Falls, SD

Home | Current Version | Previous Version | Text Only | Print | Product List | Glossary On
Versions: 1 2 3 4 5 6 7 8 9 10 11 12 13 14
700
FTUS43 KFSD 191720
TAFFSD
TAF
KFSD 191720Z 1918/2018 16007KT P6SM SKC
     FM192100 17011G17KT P6SM SKC
     FM200100 16007KT P6SM FEW100
     FM200600 17007KT P6SM BKN080=

USA.gov is the U.S. government's official web portal to all federal, state and local government web resources and services.